createdAt,value
2023-06-30T00:02:48.530Z,99.90
2023-06-30T00:05:37.704Z,99.90
2023-06-30T00:08:28.473Z,99.90
2023-06-30T00:11:24.986Z,99.90
2023-06-30T00:14:13.894Z,99.90
2023-06-30T00:17:02.705Z,99.90
2023-06-30T00:19:52.315Z,99.90
2023-06-30T00:22:41.418Z,99.90
2023-06-30T00:25:31.725Z,99.90
2023-06-30T00:28:21.059Z,99.90
2023-06-30T00:31:10.195Z,99.90
2023-06-30T00:33:59.392Z,99.90
2023-06-30T00:36:48.113Z,99.90
2023-06-30T00:39:37.058Z,99.90
2023-06-30T00:42:27.565Z,99.90
2023-06-30T00:45:16.837Z,99.90
2023-06-30T00:48:06.079Z,99.90
2023-06-30T00:50:55.588Z,99.90
2023-06-30T00:53:44.518Z,99.90
2023-06-30T00:56:33.537Z,99.90
2023-06-30T00:59:23.830Z,99.90
2023-06-30T01:02:16.260Z,99.90
2023-06-30T01:05:12.111Z,99.90
2023-06-30T01:08:09.964Z,99.90
2023-06-30T01:10:59.907Z,99.90
2023-06-30T01:13:50.735Z,99.90
2023-06-30T01:16:44.241Z,99.90
2023-06-30T01:19:40.113Z,99.90
2023-06-30T01:22:49.564Z,99.90
2023-06-30T01:25:38.428Z,99.90
2023-06-30T01:28:30.250Z,99.90
2023-06-30T01:31:19.842Z,99.90
2023-06-30T01:34:10.163Z,99.90
2023-06-30T01:36:59.085Z,99.90
2023-06-30T01:39:50.543Z,99.90
2023-06-30T01:42:40.686Z,99.90
2023-06-30T01:45:31.154Z,99.90
2023-06-30T01:48:20.737Z,99.90
2023-06-30T01:51:16.628Z,99.90
2023-06-30T01:54:06.140Z,99.90
2023-06-30T01:56:54.945Z,99.90
2023-06-30T01:59:43.774Z,99.90
2023-06-30T02:02:32.547Z,99.90
2023-06-30T02:05:21.734Z,99.90
2023-06-30T02:08:11.992Z,99.90
2023-06-30T02:11:01.138Z,99.90
2023-06-30T02:13:53.033Z,99.90
2023-06-30T02:16:41.919Z,99.90
2023-06-30T02:19:31.298Z,99.90
2023-06-30T02:22:20.087Z,99.90
2023-06-30T02:25:10.462Z,99.90
2023-06-30T02:27:59.120Z,99.90
2023-06-30T02:30:48.133Z,99.90
2023-06-30T02:33:37.130Z,99.90
2023-06-30T02:36:26.046Z,99.90
2023-06-30T02:39:14.871Z,99.90
2023-06-30T02:42:05.555Z,99.90
2023-06-30T02:44:54.681Z,99.90
2023-06-30T02:47:43.936Z,99.90
2023-06-30T02:50:34.250Z,99.90
2023-06-30T02:53:23.741Z,99.90
2023-06-30T02:56:12.817Z,99.90
2023-06-30T02:59:03.587Z,99.90
2023-06-30T03:01:53.041Z,99.90
2023-06-30T03:04:41.973Z,99.90
2023-06-30T03:07:31.379Z,99.90
2023-06-30T03:10:20.571Z,99.90
2023-06-30T03:13:09.779Z,99.90
2023-06-30T03:16:00.494Z,99.90
2023-06-30T03:18:54.386Z,99.90
2023-06-30T03:21:43.468Z,99.90
2023-06-30T03:24:32.391Z,99.90
2023-06-30T03:27:22.386Z,99.90
2023-06-30T03:30:12.358Z,99.90
2023-06-30T03:33:07.531Z,99.90
2023-06-30T03:35:56.418Z,99.90
2023-06-30T03:38:46.400Z,99.90
2023-06-30T03:41:36.258Z,99.90
2023-06-30T03:44:25.016Z,99.90
2023-06-30T03:47:13.994Z,99.90
2023-06-30T03:50:04.790Z,99.90
2023-06-30T03:52:53.622Z,99.90
2023-06-30T03:55:43.129Z,99.90
2023-06-30T03:58:32.682Z,99.90
2023-06-30T04:01:22.716Z,99.90
2023-06-30T04:04:11.854Z,99.90
2023-06-30T04:07:02.693Z,99.90
2023-06-30T04:09:51.489Z,99.90
2023-06-30T04:12:40.274Z,99.90
2023-06-30T04:15:29.111Z,99.90
2023-06-30T04:18:18.015Z,99.90
2023-06-30T04:21:06.891Z,99.90
2023-06-30T04:23:57.322Z,99.90
2023-06-30T04:26:46.267Z,99.90
2023-06-30T04:29:35.439Z,99.90
2023-06-30T04:32:24.246Z,99.90
2023-06-30T04:35:13.145Z,99.90
2023-06-30T04:38:02.221Z,99.90
2023-06-30T04:40:52.821Z,99.90
2023-06-30T04:43:42.672Z,99.90
2023-06-30T04:46:31.463Z,99.90
2023-06-30T04:49:20.980Z,99.90
2023-06-30T04:52:10.363Z,99.90
2023-06-30T04:54:59.474Z,99.90
2023-06-30T04:57:50.601Z,99.90
2023-06-30T05:00:39.702Z,99.90
2023-06-30T05:03:28.715Z,99.90
2023-06-30T05:06:17.826Z,99.90
2023-06-30T05:09:06.564Z,99.90
2023-06-30T05:11:55.454Z,99.90
2023-06-30T05:14:45.607Z,99.90
2023-06-30T05:17:34.618Z,99.90
2023-06-30T05:20:23.888Z,99.90
2023-06-30T05:23:12.738Z,99.90
2023-06-30T05:26:01.632Z,99.90
2023-06-30T05:29:04.088Z,99.90
2023-06-30T05:31:55.498Z,99.90
2023-06-30T05:34:44.928Z,99.90
2023-06-30T05:37:33.989Z,99.90
2023-06-30T05:40:22.891Z,99.90
2023-06-30T05:43:12.048Z,99.90
2023-06-30T05:46:01.078Z,99.90
2023-06-30T05:48:52.003Z,99.90
2023-06-30T05:51:41.065Z,99.90
2023-06-30T05:54:29.919Z,99.90
2023-06-30T05:57:18.705Z,99.90
2023-06-30T06:00:09.156Z,99.90
2023-06-30T06:03:02.949Z,99.90
2023-06-30T06:05:53.879Z,99.90
2023-06-30T06:08:45.162Z,99.90
2023-06-30T06:11:34.120Z,99.90
2023-06-30T06:14:22.922Z,99.90
2023-06-30T06:17:12.090Z,99.90
2023-06-30T06:20:01.051Z,99.90
2023-06-30T06:22:51.113Z,99.90
2023-06-30T06:25:45.355Z,99.90
2023-06-30T06:28:34.867Z,99.90
2023-06-30T06:31:26.046Z,99.90
2023-06-30T06:34:14.988Z,99.90
2023-06-30T06:37:04.299Z,99.90
2023-06-30T06:39:54.504Z,99.90
2023-06-30T06:42:43.335Z,99.90
2023-06-30T06:45:32.291Z,99.90
2023-06-30T06:48:22.911Z,99.90
2023-06-30T06:51:12.008Z,99.90
2023-06-30T06:54:01.158Z,99.90
2023-06-30T06:56:53.037Z,99.90
2023-06-30T06:59:41.744Z,99.90
2023-06-30T07:02:31.087Z,99.90
2023-06-30T07:05:20.304Z,99.90
2023-06-30T07:08:09.705Z,99.90
2023-06-30T07:10:58.754Z,99.90
2023-06-30T07:13:49.485Z,99.90
2023-06-30T07:16:38.258Z,99.90
2023-06-30T07:19:27.153Z,99.90
2023-06-30T07:22:16.357Z,99.90
2023-06-30T07:25:07.777Z,99.90
2023-06-30T07:27:58.085Z,99.90
2023-06-30T07:30:49.668Z,99.90
2023-06-30T07:33:38.477Z,99.90
2023-06-30T07:36:27.229Z,99.90
2023-06-30T07:39:16.439Z,99.90
2023-06-30T07:42:05.933Z,99.90
2023-06-30T07:44:56.379Z,99.90
2023-06-30T07:47:49.734Z,99.90
2023-06-30T07:50:39.283Z,99.90
2023-06-30T07:53:29.269Z,99.90
2023-06-30T07:56:17.983Z,99.90
2023-06-30T07:59:07.105Z,99.90
2023-06-30T08:01:55.987Z,99.90
2023-06-30T08:04:46.368Z,99.90
2023-06-30T08:07:49.157Z,99.90
2023-06-30T08:10:40.851Z,99.90
2023-06-30T08:13:31.277Z,99.90
2023-06-30T08:16:20.307Z,99.90
2023-06-30T08:19:09.181Z,99.90
2023-06-30T08:22:19.894Z,99.90
2023-06-30T08:25:09.393Z,97.50
2023-06-30T08:27:58.775Z,95.40
2023-06-30T08:30:47.948Z,99.40
2023-06-30T08:33:40.524Z,96.20
2023-06-30T08:36:29.956Z,97.40
2023-06-30T08:39:20.792Z,93.30
2023-06-30T08:42:13.767Z,95.10
2023-06-30T08:45:04.469Z,93.40
2023-06-30T08:47:54.738Z,91.90
2023-06-30T08:50:45.278Z,93.20
2023-06-30T08:53:34.764Z,88.60
2023-06-30T08:56:27.674Z,91.30
2023-06-30T08:59:16.554Z,89.90
2023-06-30T09:02:05.744Z,90.40
2023-06-30T09:04:55.336Z,89.80
2023-06-30T09:07:49.579Z,89.30
2023-06-30T09:10:40.282Z,90.80
2023-06-30T09:13:31.007Z,88.00
2023-06-30T09:16:20.498Z,87.30
2023-06-30T09:19:09.557Z,84.80
2023-06-30T09:21:59.122Z,83.50
2023-06-30T09:24:48.083Z,79.10
2023-06-30T09:27:37.119Z,81.40
2023-06-30T09:30:35.032Z,76.90
2023-06-30T09:33:25.059Z,86.20
2023-06-30T09:36:19.005Z,83.70
2023-06-30T09:39:10.041Z,78.10
2023-06-30T09:41:58.831Z,78.70
2023-06-30T09:44:49.910Z,82.60
2023-06-30T09:47:40.285Z,77.00
2023-06-30T09:50:32.202Z,83.30
2023-06-30T09:53:21.549Z,81.90
2023-06-30T09:56:11.480Z,85.20
2023-06-30T09:59:00.688Z,81.90
2023-06-30T10:01:54.180Z,77.50
2023-06-30T10:04:48.392Z,78.90
2023-06-30T10:07:37.512Z,72.60
2023-06-30T10:10:27.130Z,70.30
2023-06-30T10:13:17.773Z,66.30
2023-06-30T10:16:08.893Z,66.30
2023-06-30T10:19:01.509Z,62.20
2023-06-30T10:21:55.696Z,65.40
2023-06-30T10:24:48.633Z,71.30
2023-06-30T10:27:38.545Z,71.00
2023-06-30T10:30:27.806Z,68.60
2023-06-30T10:33:16.748Z,63.80
2023-06-30T10:36:07.453Z,64.50
2023-06-30T10:38:58.009Z,59.10
2023-06-30T10:41:51.309Z,56.20
2023-06-30T10:44:40.955Z,54.50
2023-06-30T10:47:30.387Z,55.30
2023-06-30T10:50:20.292Z,61.60
2023-06-30T10:53:09.246Z,57.60
2023-06-30T10:55:59.541Z,56.50
2023-06-30T10:58:48.782Z,53.70
2023-06-30T11:01:39.794Z,52.40
2023-06-30T11:04:39.109Z,51.00
2023-06-30T11:07:29.441Z,49.70
2023-06-30T11:10:36.881Z,49.40
2023-06-30T11:13:39.308Z,53.00
2023-06-30T11:16:31.091Z,57.80
2023-06-30T11:19:25.858Z,58.00
2023-06-30T11:22:24.205Z,60.10
2023-06-30T11:25:13.303Z,61.30
2023-06-30T11:28:05.900Z,62.30
2023-06-30T11:30:56.155Z,67.60
2023-06-30T11:33:46.670Z,65.30
2023-06-30T11:36:35.783Z,61.30
2023-06-30T11:39:24.761Z,57.60
2023-06-30T11:42:14.773Z,54.60
2023-06-30T11:45:03.553Z,56.60
2023-06-30T11:47:55.549Z,59.10
2023-06-30T11:50:44.762Z,55.50
2023-06-30T11:53:34.428Z,50.90
2023-06-30T11:56:23.971Z,55.30
2023-06-30T11:59:13.069Z,56.20
2023-06-30T12:02:03.074Z,52.70
2023-06-30T12:04:53.472Z,48.20
2023-06-30T12:07:43.979Z,46.80
2023-06-30T12:10:40.215Z,47.00
2023-06-30T12:13:30.323Z,45.00
2023-06-30T12:16:20.387Z,45.40
2023-06-30T12:19:10.043Z,43.70
2023-06-30T12:22:01.378Z,44.10
2023-06-30T12:24:56.738Z,43.00
2023-06-30T12:27:45.801Z,41.50
2023-06-30T12:30:35.043Z,39.90
2023-06-30T12:33:24.752Z,40.70
2023-06-30T12:36:13.538Z,39.80
2023-06-30T12:39:04.262Z,41.80
2023-06-30T12:41:53.170Z,39.50
2023-06-30T12:44:41.990Z,40.20
2023-06-30T12:47:31.144Z,41.40
2023-06-30T12:50:20.903Z,40.30
2023-06-30T12:53:09.757Z,44.20
2023-06-30T12:55:59.981Z,47.70
2023-06-30T12:58:48.902Z,50.20
2023-06-30T13:01:37.800Z,52.60
2023-06-30T13:04:28.398Z,54.80
2023-06-30T13:07:17.887Z,55.90
2023-06-30T13:10:07.904Z,58.40
2023-06-30T13:12:59.823Z,57.40
2023-06-30T13:15:49.161Z,59.90
2023-06-30T13:18:38.198Z,61.00
2023-06-30T13:21:27.048Z,60.70
2023-06-30T13:24:15.846Z,62.00
2023-06-30T13:27:04.696Z,62.80
2023-06-30T13:29:56.385Z,63.00
2023-06-30T13:32:45.166Z,64.10
2023-06-30T13:35:34.948Z,65.40
2023-06-30T13:38:24.030Z,66.50
2023-06-30T13:41:12.831Z,67.70
2023-06-30T13:44:01.588Z,69.20
2023-06-30T13:46:51.689Z,71.00
2023-06-30T13:49:40.454Z,69.60
2023-06-30T13:52:29.376Z,69.40
2023-06-30T13:55:18.211Z,71.00
2023-06-30T13:58:07.120Z,72.00
2023-06-30T14:00:55.819Z,71.50
2023-06-30T14:03:49.941Z,72.00
2023-06-30T14:06:39.472Z,71.90
2023-06-30T14:09:28.643Z,72.20
2023-06-30T14:12:19.293Z,72.60
2023-06-30T14:15:09.494Z,73.20
2023-06-30T14:17:58.482Z,72.70
2023-06-30T14:20:49.594Z,75.50
2023-06-30T14:23:38.767Z,72.70
2023-06-30T14:26:28.061Z,74.10
2023-06-30T14:29:17.223Z,76.90
2023-06-30T14:32:06.986Z,76.30
2023-06-30T14:34:56.322Z,75.80
2023-06-30T14:37:46.760Z,75.50
2023-06-30T14:40:35.670Z,75.70
2023-06-30T14:43:25.338Z,74.50
2023-06-30T14:46:14.176Z,73.70
2023-06-30T14:49:04.109Z,73.70
2023-06-30T14:51:53.345Z,74.60
2023-06-30T14:54:43.484Z,74.70
2023-06-30T14:57:32.521Z,74.70
2023-06-30T15:00:21.340Z,74.10
2023-06-30T15:03:10.182Z,74.20
2023-06-30T15:06:02.696Z,73.40
2023-06-30T15:08:51.410Z,74.30
2023-06-30T15:11:41.532Z,75.00
2023-06-30T15:14:30.488Z,75.80
2023-06-30T15:17:20.183Z,73.90
2023-06-30T15:20:09.961Z,74.00
2023-06-30T15:22:58.919Z,73.60
2023-06-30T15:25:48.255Z,75.20
2023-06-30T15:28:39.281Z,76.00
2023-06-30T15:34:25.086Z,75.90
2023-06-30T15:37:14.567Z,78.50
2023-06-30T15:40:04.223Z,77.00
2023-06-30T15:42:52.990Z,77.50
2023-06-30T15:45:43.474Z,77.90
2023-06-30T15:48:32.307Z,77.00
2023-06-30T15:51:21.502Z,78.30
2023-06-30T15:54:10.740Z,80.50
2023-06-30T15:56:59.585Z,77.40
2023-06-30T15:59:48.364Z,79.00
2023-06-30T16:02:39.330Z,79.10
2023-06-30T16:05:28.457Z,77.60
2023-06-30T16:08:17.272Z,78.00
2023-06-30T16:11:05.941Z,76.60
2023-06-30T16:13:54.731Z,77.80
2023-06-30T16:16:43.664Z,76.80
2023-06-30T16:19:34.229Z,77.30
2023-06-30T16:22:23.000Z,76.90
2023-06-30T16:25:12.138Z,77.80
2023-06-30T16:28:01.073Z,77.30
2023-06-30T16:30:49.953Z,79.10
2023-06-30T16:33:38.756Z,79.50
2023-06-30T16:36:32.802Z,80.10
2023-06-30T16:39:21.525Z,81.00
2023-06-30T16:42:10.513Z,80.30
2023-06-30T16:44:59.403Z,82.40
2023-06-30T16:47:48.387Z,81.40
2023-06-30T16:50:37.323Z,84.30
2023-06-30T16:53:28.127Z,82.00
2023-06-30T16:56:16.971Z,89.40
2023-06-30T16:59:06.126Z,85.50
2023-06-30T17:01:56.312Z,84.50
2023-06-30T17:04:45.954Z,83.70
2023-06-30T17:07:35.005Z,86.00
2023-06-30T17:10:25.533Z,83.40
2023-06-30T17:13:14.365Z,88.50
2023-06-30T17:16:03.628Z,88.30
2023-06-30T17:18:52.688Z,88.60
2023-06-30T17:21:41.821Z,87.50
2023-06-30T17:24:30.951Z,85.50
2023-06-30T17:27:21.586Z,92.10
2023-06-30T17:30:12.082Z,84.10
2023-06-30T17:33:01.218Z,91.70
2023-06-30T17:35:50.077Z,90.90
2023-06-30T17:38:38.790Z,89.90
2023-06-30T17:41:27.863Z,91.60
2023-06-30T17:44:17.958Z,93.10
2023-06-30T17:47:07.457Z,95.40
2023-06-30T17:49:56.241Z,97.90
2023-06-30T17:52:45.265Z,94.80
2023-06-30T17:55:34.320Z,97.20
2023-06-30T17:58:23.140Z,99.90
2023-06-30T18:01:13.655Z,99.10
2023-06-30T18:04:02.466Z,97.60
2023-06-30T18:07:03.878Z,98.70
2023-06-30T18:09:52.747Z,99.90
2023-06-30T18:12:42.186Z,99.20
2023-06-30T18:15:32.348Z,97.80
2023-06-30T18:18:22.519Z,99.60
2023-06-30T18:21:13.077Z,99.90
2023-06-30T18:24:02.121Z,97.30
2023-06-30T18:26:51.623Z,99.60
2023-06-30T18:29:40.701Z,99.90
2023-06-30T18:32:29.820Z,96.70
2023-06-30T18:35:20.018Z,97.90
2023-06-30T18:38:08.851Z,97.90
2023-06-30T18:40:57.803Z,96.80
2023-06-30T18:43:46.564Z,98.90
2023-06-30T18:46:36.224Z,99.90
2023-06-30T18:49:25.833Z,98.20
2023-06-30T18:52:16.249Z,98.80
2023-06-30T18:55:05.398Z,98.10
2023-06-30T18:57:54.180Z,98.10
2023-06-30T19:00:43.696Z,96.90
2023-06-30T19:03:32.753Z,99.10
2023-06-30T19:06:22.105Z,97.50
2023-06-30T19:09:13.089Z,99.90
2023-06-30T19:12:02.090Z,99.00
2023-06-30T19:14:50.937Z,99.60
2023-06-30T19:17:39.882Z,97.60
2023-06-30T19:20:29.309Z,99.80
2023-06-30T19:23:19.314Z,99.00
2023-06-30T19:26:12.848Z,98.30
2023-06-30T19:29:02.036Z,99.90
2023-06-30T19:31:50.694Z,99.90
2023-06-30T19:34:39.842Z,98.80
2023-06-30T19:37:28.548Z,99.10
2023-06-30T19:40:18.046Z,99.90
2023-06-30T19:43:08.138Z,99.30
2023-06-30T19:45:56.950Z,99.90
2023-06-30T19:48:45.676Z,99.90
2023-06-30T19:51:34.454Z,99.90
2023-06-30T19:54:23.201Z,99.90
2023-06-30T19:57:11.949Z,99.90
2023-06-30T20:00:02.677Z,99.90
2023-06-30T20:03:01.537Z,99.90
2023-06-30T20:05:50.576Z,99.90
2023-06-30T20:08:39.396Z,99.90
2023-06-30T20:11:28.162Z,99.90
2023-06-30T20:14:16.981Z,99.90
2023-06-30T20:17:09.062Z,99.90
2023-06-30T20:19:58.093Z,99.90
2023-06-30T20:22:47.967Z,99.90
2023-06-30T20:25:36.912Z,99.90
2023-06-30T20:28:25.897Z,99.90
2023-06-30T20:31:15.407Z,99.90
2023-06-30T20:34:05.884Z,99.90
2023-06-30T20:36:54.717Z,99.90
2023-06-30T20:39:43.694Z,99.90
2023-06-30T20:42:32.852Z,99.90
2023-06-30T20:45:21.749Z,99.90
2023-06-30T20:48:10.813Z,99.90
2023-06-30T20:51:01.227Z,99.90
2023-06-30T20:53:50.098Z,99.90
2023-06-30T20:56:39.067Z,99.90
2023-06-30T20:59:28.640Z,99.90
2023-06-30T21:02:17.704Z,99.90
2023-06-30T21:05:07.267Z,99.90
2023-06-30T21:07:57.474Z,99.90
2023-06-30T21:10:46.554Z,99.90
2023-06-30T21:13:35.582Z,99.90
2023-06-30T21:16:24.517Z,99.90
2023-06-30T21:19:14.027Z,99.90
2023-06-30T21:22:03.286Z,99.90
2023-06-30T21:24:53.596Z,99.90
2023-06-30T21:27:42.325Z,99.90
2023-06-30T21:30:31.225Z,99.90
2023-06-30T21:33:20.016Z,99.90
2023-06-30T21:36:08.870Z,99.90
2023-06-30T21:38:57.754Z,99.90
2023-06-30T21:41:48.347Z,99.90
2023-06-30T21:44:37.085Z,99.90
2023-06-30T21:47:26.249Z,99.90
2023-06-30T21:50:14.979Z,99.90
2023-06-30T21:53:04.354Z,99.90
2023-06-30T21:55:53.588Z,99.90
2023-06-30T21:58:43.767Z,99.90
2023-06-30T22:01:40.661Z,99.90
2023-06-30T22:04:30.385Z,99.90
2023-06-30T22:07:19.743Z,99.90
2023-06-30T22:10:09.934Z,99.90
2023-06-30T22:12:58.701Z,99.90
2023-06-30T22:15:49.211Z,99.90
2023-06-30T22:18:38.007Z,99.90
2023-06-30T22:21:27.088Z,99.90
2023-06-30T22:24:15.845Z,99.90
2023-06-30T22:27:04.866Z,99.90
2023-06-30T22:29:53.622Z,99.90
2023-06-30T22:32:43.893Z,99.90
2023-06-30T22:35:32.701Z,99.90
2023-06-30T22:38:21.382Z,99.90
2023-06-30T22:41:10.105Z,99.90
2023-06-30T22:43:59.284Z,99.90
2023-06-30T22:46:48.270Z,99.90
2023-06-30T22:49:38.926Z,99.90
2023-06-30T22:52:27.763Z,99.90
2023-06-30T22:55:16.557Z,99.90
2023-06-30T22:58:05.510Z,99.90
2023-06-30T23:00:54.404Z,99.90
2023-06-30T23:03:43.191Z,99.90
2023-06-30T23:06:33.698Z,99.90
2023-06-30T23:09:22.962Z,99.90
2023-06-30T23:12:11.690Z,99.90
2023-06-30T23:15:00.591Z,99.90
2023-06-30T23:17:49.923Z,99.90
2023-06-30T23:20:38.886Z,99.90
2023-06-30T23:23:29.378Z,99.90
2023-06-30T23:26:23.028Z,99.90
2023-06-30T23:29:11.863Z,99.90
2023-06-30T23:32:06.899Z,99.90
2023-06-30T23:34:55.730Z,99.90
2023-06-30T23:37:45.233Z,99.90
2023-06-30T23:40:35.798Z,99.90
2023-06-30T23:43:24.806Z,99.90
2023-06-30T23:46:19.468Z,99.90
2023-06-30T23:49:08.469Z,99.90
2023-06-30T23:51:57.415Z,99.90
2023-06-30T23:54:46.121Z,99.90
2023-06-30T23:57:36.226Z,99.90
